Time;durP1;ratioP1;P1;durP2;ratioP2;P2;SDS_P1;SDS_P2;PMS_P1;PMS_P2;Temp;Humidity;BMP_temperature;BMP_pressure;BME280_temperature;BME280_humidity;BME280_pressure;Samples;Min_cycle;Max_cycle;Signal;HPM_P1;HPM_P2
2021/12/04 00:00:10;;;;;;;42.03;19.80;;;4.70;99.90;;;;;;4706196;30;20041;-83
2021/12/04 00:02:36;;;;;;;41.40;20.37;;;4.70;99.90;;;;;;4690135;30;20050;-85
2021/12/04 00:05:05;;;;;;;37.80;19.77;;;4.70;99.90;;;;;;4686263;30;20120;-84
2021/12/04 00:07:32;;;;;;;41.57;20.17;;;4.70;99.90;;;;;;4686411;30;20376;-85
2021/12/04 00:10:02;;;;;;;42.27;20.93;;;4.80;99.90;;;;;;4696522;30;20533;-84
2021/12/04 00:12:30;;;;;;;37.23;19.77;;;4.70;99.90;;;;;;4699963;30;20053;-84
2021/12/04 00:14:56;;;;;;;42.63;19.83;;;4.70;99.90;;;;;;4688629;30;20050;-85
2021/12/04 00:17:22;;;;;;;40.47;20.13;;;4.70;99.90;;;;;;4715319;30;20041;-85
2021/12/04 00:19:48;;;;;;;39.37;19.33;;;4.70;99.90;;;;;;4692817;30;20140;-86
2021/12/04 00:22:14;;;;;;;44.77;20.03;;;4.70;99.90;;;;;;4708361;30;20072;-86
2021/12/04 00:24:40;;;;;;;40.80;20.53;;;4.70;99.90;;;;;;4682489;30;20136;-83
2021/12/04 00:27:06;;;;;;;44.27;21.27;;;4.70;99.90;;;;;;4693629;30;20079;-84
2021/12/04 00:29:31;;;;;;;42.73;20.60;;;4.70;99.90;;;;;;4675192;30;20092;-85
2021/12/04 00:32:11;;;;;;;39.30;19.60;;;4.70;99.90;;;;;;4681728;30;20081;-85
2021/12/04 00:34:41;;;;;;;38.73;18.83;;;4.70;99.90;;;;;;4681824;30;20053;-85
2021/12/04 00:50:35;;;;;;;42.73;21.07;;;4.70;99.90;;;;;;4702447;30;20049;-85
2021/12/04 00:53:01;;;;;;;43.77;20.17;;;4.70;99.90;;;;;;4670110;30;20388;-86
2021/12/04 00:55:27;;;;;;;42.50;19.17;;;4.70;99.90;;;;;;4706464;30;20192;-86
2021/12/04 00:57:52;;;;;;;43.33;19.90;;;4.60;99.90;;;;;;4701314;30;20633;-85
2021/12/04 01:00:19;;;;;;;42.90;21.27;;;4.70;99.90;;;;;;4692710;30;20049;-85
2021/12/04 01:02:45;;;;;;;41.43;19.50;;;4.70;99.90;;;;;;4700237;30;20502;-85
2021/12/04 01:05:11;;;;;;;45.43;19.10;;;4.60;99.90;;;;;;4702616;30;20045;-84
2021/12/04 01:07:37;;;;;;;40.33;19.70;;;4.60;99.90;;;;;;4688373;30;20045;-86
2021/12/04 01:10:06;;;;;;;38.87;19.23;;;4.70;99.90;;;;;;4677441;30;20407;-85
2021/12/04 01:12:32;;;;;;;45.20;20.53;;;4.70;99.90;;;;;;4693652;30;20143;-84
2021/12/04 01:14:58;;;;;;;45.50;20.07;;;4.70;99.90;;;;;;4685225;30;20116;-88
2021/12/04 01:17:24;;;;;;;40.90;19.30;;;4.70;99.90;;;;;;4686072;30;20138;-83
2021/12/04 01:19:49;;;;;;;43.20;19.47;;;4.70;99.90;;;;;;4676242;30;20042;-86
2021/12/04 01:22:19;;;;;;;39.53;19.73;;;4.70;99.90;;;;;;4700106;30;20068;-84
2021/12/04 01:24:45;;;;;;;39.33;19.27;;;4.70;99.90;;;;;;4697575;30;20515;-84
2021/12/04 01:27:13;;;;;;;47.87;19.80;;;4.70;99.90;;;;;;4676978;30;20056;-83
2021/12/04 01:29:40;;;;;;;41.83;17.77;;;4.70;99.90;;;;;;4694449;30;20065;-83
2021/12/04 01:32:07;;;;;;;43.40;18.30;;;4.70;99.90;;;;;;4713238;30;20173;-83
2021/12/04 01:34:34;;;;;;;41.37;18.80;;;4.70;99.90;;;;;;4706877;30;20057;-85
2021/12/04 01:37:01;;;;;;;41.53;19.87;;;4.60;99.90;;;;;;4694067;30;20140;-83
2021/12/04 01:39:26;;;;;;;38.87;17.60;;;4.60;99.90;;;;;;4710126;30;20053;-84
2021/12/04 01:41:52;;;;;;;40.07;17.27;;;4.80;99.90;;;;;;4700302;30;20041;-84
2021/12/04 01:44:18;;;;;;;34.73;17.40;;;4.70;99.90;;;;;;4706451;30;20652;-84
2021/12/04 01:46:44;;;;;;;34.97;16.77;;;4.70;99.90;;;;;;4702841;30;20064;-84
2021/12/04 01:49:09;;;;;;;37.93;16.80;;;4.70;99.90;;;;;;4701659;30;20092;-85
2021/12/04 01:51:36;;;;;;;34.27;15.90;;;4.70;99.90;;;;;;4704157;30;20057;-83
2021/12/04 01:54:02;;;;;;;36.13;16.57;;;4.60;99.90;;;;;;4699245;30;20054;-82
2021/12/04 01:56:33;;;;;;;29.43;15.83;;;4.70;99.90;;;;;;4687049;30;20521;-84
2021/12/04 01:59:00;;;;;;;31.33;15.63;;;4.70;99.90;;;;;;4715988;30;20103;-83
2021/12/04 02:01:26;;;;;;;33.63;17.33;;;4.60;99.90;;;;;;4698613;30;20053;-83
2021/12/04 02:03:52;;;;;;;30.23;15.03;;;4.70;99.90;;;;;;4699027;30;20144;-84
2021/12/04 02:06:18;;;;;;;33.80;15.27;;;4.70;99.90;;;;;;4710978;30;20048;-83
2021/12/04 02:08:45;;;;;;;30.23;15.50;;;4.70;99.90;;;;;;4684387;30;20401;-83
2021/12/04 02:11:11;;;;;;;30.07;15.80;;;4.70;99.90;;;;;;4682070;30;20041;-83
2021/12/04 02:13:37;;;;;;;28.43;15.27;;;4.70;99.90;;;;;;4701832;30;20072;-83
2021/12/04 02:16:13;;;;;;;31.80;15.23;;;4.70;99.90;;;;;;4682036;30;20050;-83
2021/12/04 02:18:39;;;;;;;27.90;15.03;;;4.70;99.90;;;;;;4693791;30;20049;-83
2021/12/04 02:21:05;;;;;;;31.97;15.93;;;4.70;99.90;;;;;;4697535;30;20127;-83
2021/12/04 02:23:30;;;;;;;29.63;16.00;;;4.70;99.90;;;;;;4695595;30;20053;-82
2021/12/04 02:25:56;;;;;;;31.83;16.07;;;4.70;99.90;;;;;;4698282;30;20056;-82
2021/12/04 02:28:22;;;;;;;30.20;15.87;;;4.70;99.90;;;;;;4684891;30;20060;-83
2021/12/04 02:30:48;;;;;;;25.93;15.00;;;4.70;99.90;;;;;;4684918;30;20045;-83
2021/12/04 02:33:16;;;;;;;31.37;15.73;;;4.70;99.90;;;;;;4702183;30;20518;-82
2021/12/04 02:35:49;;;;;;;27.23;15.07;;;4.70;99.90;;;;;;4715397;30;20072;-83
2021/12/04 02:38:16;;;;;;;28.37;15.50;;;4.70;99.90;;;;;;4701761;30;20038;-82
2021/12/04 02:40:43;;;;;;;30.37;16.13;;;4.70;99.90;;;;;;4698799;30;20049;-83
2021/12/04 02:43:10;;;;;;;29.50;16.07;;;4.70;99.90;;;;;;4689947;30;20053;-82
2021/12/04 02:45:36;;;;;;;26.77;15.03;;;4.70;99.90;;;;;;4695863;30;20056;-85
2021/12/04 02:48:02;;;;;;;27.17;14.93;;;4.70;99.90;;;;;;4683806;30;20406;-83
2021/12/04 02:50:28;;;;;;;26.70;15.73;;;4.70;99.90;;;;;;4686089;30;20068;-83
2021/12/04 02:52:54;;;;;;;25.60;14.63;;;4.70;99.90;;;;;;4708283;30;20497;-82
2021/12/04 02:55:20;;;;;;;25.17;15.03;;;4.70;99.90;;;;;;4711717;30;20050;-83
2021/12/04 02:57:46;;;;;;;23.97;13.83;;;4.70;99.90;;;;;;4680783;30;20419;-83
2021/12/04 03:00:21;;;;;;;26.97;14.17;;;4.70;99.90;;;;;;4700950;30;20044;-83
2021/12/04 03:02:47;;;;;;;22.53;12.60;;;4.70;99.90;;;;;;4701488;30;20057;-86
2021/12/04 03:05:13;;;;;;;25.43;13.73;;;4.70;99.90;;;;;;4686617;30;20063;-82
2021/12/04 03:07:40;;;;;;;22.03;12.80;;;4.70;99.90;;;;;;4687721;30;20049;-84
2021/12/04 03:10:08;;;;;;;22.77;13.57;;;4.70;99.90;;;;;;4699883;30;20053;-83
2021/12/04 03:12:35;;;;;;;24.90;14.80;;;4.70;99.90;;;;;;4704159;30;20056;-83
2021/12/04 03:15:00;;;;;;;21.33;13.00;;;4.70;99.90;;;;;;4682324;30;20159;-82
2021/12/04 03:17:26;;;;;;;24.33;13.60;;;4.70;99.90;;;;;;4706279;30;20136;-83
2021/12/04 03:19:53;;;;;;;19.90;12.70;;;4.70;99.90;;;;;;4703222;30;20048;-84
2021/12/04 03:22:22;;;;;;;23.43;13.30;;;4.70;99.90;;;;;;4704561;30;20128;-83
2021/12/04 03:24:48;;;;;;;17.67;12.13;;;4.70;99.90;;;;;;4697466;30;20502;-84
2021/12/04 03:27:16;;;;;;;21.43;12.27;;;4.70;99.90;;;;;;4690710;30;20045;-83
2021/12/04 03:29:48;;;;;;;20.73;12.50;;;4.70;99.90;;;;;;4687646;30;20050;-84
2021/12/04 03:43:08;;;;;;;19.27;11.33;;;4.60;99.90;;;;;;4704144;30;20053;-84
2021/12/04 03:45:36;;;;;;;19.17;11.20;;;4.60;99.90;;;;;;4709467;30;20057;-83
2021/12/04 03:48:09;;;;;;;17.90;11.13;;;4.60;99.90;;;;;;4706955;30;20052;-84
2021/12/04 03:50:36;;;;;;;18.53;11.53;;;4.60;99.90;;;;;;4718284;30;20053;-83
2021/12/04 03:53:03;;;;;;;17.37;10.63;;;4.60;99.90;;;;;;4706494;30;20457;-84
2021/12/04 03:55:28;;;;;;;18.90;11.20;;;4.70;99.90;;;;;;4717991;30;20049;-84
2021/12/04 03:57:54;;;;;;;19.47;10.97;;;4.60;99.90;;;;;;4681281;30;20052;-85
2021/12/04 04:00:20;;;;;;;17.93;10.30;;;4.60;99.90;;;;;;4701687;30;20136;-83
2021/12/04 04:02:46;;;;;;;19.93;10.93;;;4.60;99.90;;;;;;4692804;30;20050;-85
2021/12/04 04:05:13;;;;;;;17.57;10.60;;;4.60;99.90;;;;;;4665519;30;20129;-85
2021/12/04 04:07:39;;;;;;;19.80;10.43;;;4.60;99.90;;;;;;4700872;30;20518;-84
2021/12/04 04:10:05;;;;;;;19.60;11.00;;;4.60;99.90;;;;;;4703899;30;20422;-83
2021/12/04 04:12:32;;;;;;;19.80;10.93;;;4.60;99.90;;;;;;4681687;30;20053;-83
2021/12/04 04:14:58;;;;;;;20.50;10.73;;;4.60;99.90;;;;;;4672613;30;20399;-85
2021/12/04 04:17:26;;;;;;;21.33;10.77;;;4.50;99.90;;;;;;4686731;30;20046;-84
2021/12/04 04:19:51;;;;;;;22.97;11.17;;;4.50;99.90;;;;;;4704884;30;20048;-83
2021/12/04 04:22:17;;;;;;;19.73;10.67;;;4.60;99.90;;;;;;4703198;30;20511;-83
2021/12/04 04:24:43;;;;;;;20.07;11.40;;;4.60;99.90;;;;;;4686131;30;20065;-83
2021/12/04 04:27:09;;;;;;;19.17;10.73;;;4.60;99.90;;;;;;4692111;30;20052;-83
2021/12/04 04:29:34;;;;;;;20.67;10.33;;;4.60;99.90;;;;;;4679315;30;20064;-82
2021/12/04 04:32:00;;;;;;;20.13;11.00;;;4.60;99.90;;;;;;4697744;30;20111;-83
2021/12/04 04:34:36;;;;;;;20.37;12.27;;;4.60;99.90;;;;;;4683678;30;20053;-83
2021/12/04 05:12:48;;;;;;;20.20;11.47;;;4.60;99.90;;;;;;4688035;30;20425;-82
2021/12/04 05:15:20;;;;;;;24.10;12.27;;;4.50;99.90;;;;;;4701171;30;20060;-82
2021/12/04 05:20:21;;;;;;;20.13;11.50;;;4.60;99.90;;;;;;4709821;30;20056;-82
2021/12/04 05:22:47;;;;;;;22.43;11.63;;;4.60;99.90;;;;;;4698045;30;20058;-82
2021/12/04 05:25:13;;;;;;;23.87;11.70;;;4.60;99.90;;;;;;4684432;30;20406;-82
2021/12/04 05:27:39;;;;;;;20.70;11.37;;;4.60;99.90;;;;;;4691023;30;20055;-82
2021/12/04 05:30:06;;;;;;;20.67;11.67;;;4.70;99.90;;;;;;4705988;30;20053;-82
2021/12/04 05:32:32;;;;;;;20.90;12.03;;;4.60;99.90;;;;;;4699324;30;20102;-82
2021/12/04 05:34:58;;;;;;;19.10;10.30;;;4.60;99.90;;;;;;4703326;30;20510;-82
2021/12/04 05:37:24;;;;;;;23.87;10.67;;;4.60;99.90;;;;;;4683393;30;20046;-82
2021/12/04 05:39:49;;;;;;;23.83;11.30;;;4.60;99.90;;;;;;4685569;30;20137;-82
2021/12/04 05:42:15;;;;;;;22.03;10.97;;;4.60;99.90;;;;;;4697559;30;20088;-82
2021/12/04 05:44:42;;;;;;;23.17;11.57;;;4.60;99.90;;;;;;4691366;30;20049;-83
2021/12/04 05:47:17;;;;;;;17.97;10.73;;;4.60;99.90;;;;;;4703559;30;20073;-83
2021/12/04 05:57:07;;;;;;;18.95;10.75;;;4.60;99.90;;;;;;4688233;30;20505;-82
2021/12/04 05:59:34;;;;;;;19.70;11.20;;;4.60;99.90;;;;;;4695617;30;20083;-82
2021/12/04 06:01:59;;;;;;;21.93;11.47;;;4.60;99.90;;;;;;4686105;30;20465;-82
2021/12/04 06:04:25;;;;;;;20.47;11.80;;;4.60;99.90;;;;;;4700314;30;20132;-82
2021/12/04 06:06:51;;;;;;;19.20;11.07;;;4.60;99.90;;;;;;4685486;30;20400;-83
2021/12/04 06:09:17;;;;;;;23.17;11.93;;;4.50;99.90;;;;;;4699157;30;20565;-83
2021/12/04 06:11:43;;;;;;;22.03;11.57;;;4.60;99.90;;;;;;4692416;30;20053;-83
2021/12/04 06:14:09;;;;;;;20.53;11.50;;;4.60;99.90;;;;;;4714341;30;20051;-83
2021/12/04 06:16:35;;;;;;;22.80;13.40;;;4.60;99.90;;;;;;4709511;30;20144;-83
2021/12/04 06:19:14;;;;;;;20.60;10.70;;;4.60;99.90;;;;;;4687555;30;20073;-83
2021/12/04 06:24:24;;;;;;;20.73;12.80;;;4.60;99.90;;;;;;4694283;30;20061;-83
2021/12/04 06:26:49;;;;;;;20.40;11.73;;;4.60;99.90;;;;;;4682628;30;20129;-83
2021/12/04 06:29:15;;;;;;;23.33;11.60;;;4.60;99.90;;;;;;4702881;30;20049;-82
2021/12/04 06:31:41;;;;;;;20.80;11.10;;;4.60;99.90;;;;;;4680062;30;20053;-83
2021/12/04 06:34:07;;;;;;;23.87;12.23;;;4.60;99.90;;;;;;4698685;30;20050;-82
2021/12/04 06:36:34;;;;;;;18.27;11.50;;;4.60;99.90;;;;;;4703075;30;20041;-82
2021/12/04 06:39:00;;;;;;;20.67;11.00;;;4.60;99.90;;;;;;4700814;30;20103;-82
2021/12/04 06:41:25;;;;;;;20.33;11.60;;;4.60;99.90;;;;;;4707856;30;20305;-82
2021/12/04 06:43:52;;;;;;;21.60;11.40;;;4.60;99.90;;;;;;4698134;30;20113;-82
2021/12/04 06:46:20;;;;;;;19.23;11.27;;;4.60;99.90;;;;;;4683052;30;20448;-82
2021/12/04 06:49:02;;;;;;;19.30;11.43;;;4.60;99.90;;;;;;4703322;30;20082;-83
2021/12/04 06:54:04;;;;;;;19.87;11.40;;;4.60;99.90;;;;;;4700137;30;20057;-83
2021/12/04 06:56:39;;;;;;;20.87;12.10;;;4.60;99.90;;;;;;4689493;30;20045;-83
2021/12/04 06:59:10;;;;;;;21.30;12.17;;;4.70;99.90;;;;;;4673758;30;20048;-83
2021/12/04 07:01:37;;;;;;;;;;;4.60;99.90;;;;;;4715273;30;20482;-82
2021/12/04 07:04:03;;;;;;;19.17;11.53;;;4.70;99.90;;;;;;4690825;30;19923;-83
2021/12/04 07:06:29;;;;;;;24.60;11.87;;;4.70;99.90;;;;;;4720728;30;20106;-84
2021/12/04 07:08:57;;;;;;;19.73;11.27;;;4.70;99.90;;;;;;4707002;30;20431;-84
2021/12/04 07:11:24;;;;;;;21.30;12.07;;;4.70;99.90;;;;;;4703985;30;20050;-84
2021/12/04 07:13:50;;;;;;;23.03;11.73;;;4.70;99.90;;;;;;4673888;30;20061;-84
2021/12/04 07:16:16;;;;;;;23.60;12.57;;;4.70;99.90;;;;;;4694484;30;20136;-84
2021/12/04 07:18:46;;;;;;;19.07;11.23;;;4.70;99.90;;;;;;4696750;30;20569;-83
2021/12/04 07:21:11;;;;;;;23.67;12.17;;;4.70;99.90;;;;;;4719557;30;20053;-83
2021/12/04 07:23:38;;;;;;;23.53;11.43;;;4.60;99.90;;;;;;4710427;30;20136;-83
2021/12/04 07:26:05;;;;;;;24.47;13.23;;;4.70;99.90;;;;;;4674900;30;20053;-83
2021/12/04 07:28:31;;;;;;;24.37;12.33;;;4.70;99.90;;;;;;4685876;30;20384;-82
2021/12/04 07:30:57;;;;;;;22.97;11.57;;;4.70;99.90;;;;;;4689819;30;20056;-81
2021/12/04 07:33:23;;;;;;;22.07;11.90;;;4.70;99.90;;;;;;4672762;30;20517;-82
2021/12/04 07:35:50;;;;;;;23.13;11.60;;;4.70;99.90;;;;;;4710564;30;20050;-82
2021/12/04 07:38:16;;;;;;;22.27;11.53;;;4.70;99.90;;;;;;4703255;30;20048;-82
2021/12/04 07:40:43;;;;;;;22.17;11.87;;;4.70;99.90;;;;;;4704509;30;20045;-82
2021/12/04 07:43:09;;;;;;;22.03;11.83;;;4.70;99.90;;;;;;4704128;30;20376;-81
2021/12/04 07:45:35;;;;;;;22.50;11.37;;;4.70;99.90;;;;;;4704113;30;20056;-82
2021/12/04 07:48:01;;;;;;;18.03;9.80;;;4.70;99.90;;;;;;4704256;30;20053;-82
2021/12/04 07:50:27;;;;;;;20.93;10.80;;;4.70;99.90;;;;;;4708532;30;20049;-81
2021/12/04 07:52:53;;;;;;;16.00;9.50;;;4.70;99.90;;;;;;4707133;30;20088;-82
2021/12/04 07:55:19;;;;;;;15.60;9.90;;;4.70;99.90;;;;;;4707798;30;20530;-82
2021/12/04 07:57:45;;;;;;;14.67;9.30;;;4.70;99.90;;;;;;4714912;30;20046;-81
2021/12/04 08:00:15;;;;;;;13.47;9.13;;;4.70;99.90;;;;;;4698495;30;20037;-81
2021/12/04 08:02:41;;;;;;;16.73;10.30;;;4.70;99.90;;;;;;4693205;30;20495;-82
2021/12/04 08:05:08;;;;;;;15.77;9.47;;;4.70;99.90;;;;;;4716553;30;20128;-81
2021/12/04 08:07:34;;;;;;;18.57;9.83;;;4.80;99.90;;;;;;4705747;30;20075;-81
2021/12/04 08:10:00;;;;;;;17.20;10.47;;;4.80;99.90;;;;;;4713720;30;20041;-81
2021/12/04 08:12:26;;;;;;;16.73;10.40;;;4.80;99.90;;;;;;4692488;30;20059;-82
2021/12/04 08:14:53;;;;;;;18.17;10.67;;;4.80;99.90;;;;;;4687999;30;20443;-81
2021/12/04 08:17:20;;;;;;;16.57;10.37;;;4.80;99.90;;;;;;4655856;30;20054;-81
2021/12/04 08:19:46;;;;;;;22.27;10.97;;;4.80;99.90;;;;;;4692225;30;20127;-81
2021/12/04 08:22:12;;;;;;;20.87;11.57;;;4.80;99.90;;;;;;4684666;30;20460;-82
2021/12/04 08:24:38;;;;;;;18.73;10.80;;;4.80;99.90;;;;;;4686576;30;20108;-81
2021/12/04 08:27:04;;;;;;;21.53;11.57;;;4.70;99.90;;;;;;4672602;30;20045;-81
2021/12/04 08:29:30;;;;;;;23.17;13.00;;;4.80;99.90;;;;;;4658504;30;20041;-82
2021/12/04 08:31:56;;;;;;;24.30;13.90;;;4.70;99.90;;;;;;4671200;30;20111;-82
2021/12/04 08:34:23;;;;;;;25.70;13.33;;;4.80;99.90;;;;;;4700030;30;20061;-82
2021/12/04 08:36:51;;;;;;;28.33;15.10;;;4.80;99.90;;;;;;4699776;30;20056;-81
2021/12/04 08:39:17;;;;;;;26.57;14.03;;;4.80;99.90;;;;;;4709098;30;20118;-81
2021/12/04 08:41:43;;;;;;;23.93;13.60;;;4.80;99.90;;;;;;4717865;30;20049;-81
2021/12/04 08:44:09;;;;;;;27.43;14.20;;;4.80;99.90;;;;;;4699254;30;20042;-81
2021/12/04 08:46:37;;;;;;;24.63;13.30;;;4.90;99.90;;;;;;4680096;30;20521;-80
2021/12/04 08:49:05;;;;;;;26.93;13.50;;;4.90;99.90;;;;;;4688743;30;20079;-80
2021/12/04 08:51:32;;;;;;;26.60;13.93;;;4.90;99.90;;;;;;4701343;30;20131;-83
2021/12/04 08:53:58;;;;;;;25.73;13.60;;;5.00;99.90;;;;;;4701230;30;20138;-82
2021/12/04 08:56:24;;;;;;;27.07;13.27;;;4.90;99.90;;;;;;4700257;30;20128;-82
2021/12/04 08:58:50;;;;;;;27.10;14.60;;;5.00;99.90;;;;;;4718341;30;20048;-82
2021/12/04 09:01:24;;;;;;;26.77;14.30;;;5.00;99.90;;;;;;4688242;30;20117;-81
2021/12/04 09:03:54;;;;;;;28.83;13.60;;;5.00;99.90;;;;;;4683466;30;20499;-81
2021/12/04 09:06:21;;;;;;;24.10;12.80;;;5.10;99.90;;;;;;4680970;30;20049;-81
2021/12/04 09:08:50;;;;;;;26.07;13.47;;;5.10;99.90;;;;;;4703156;30;20064;-82
2021/12/04 09:11:28;;;;;;;24.20;12.13;;;5.10;99.90;;;;;;4680538;30;20591;-80
2021/12/04 09:13:56;;;;;;;23.60;11.93;;;5.10;99.90;;;;;;4715780;30;20553;-82
2021/12/04 09:16:23;;;;;;;21.83;10.77;;;5.10;99.90;;;;;;4717637;30;20060;-82
2021/12/04 09:18:50;;;;;;;27.30;12.70;;;5.10;99.90;;;;;;4700444;30;20392;-81
2021/12/04 09:21:16;;;;;;;23.20;11.87;;;5.10;99.90;;;;;;4690169;30;20073;-83
2021/12/04 09:23:48;;;;;;;22.77;11.27;;;5.10;99.90;;;;;;4699008;30;20053;-81
2021/12/04 09:26:29;;;;;;;;;;;5.10;99.90;;;;;;4685303;30;20509;-81
2021/12/04 09:29:30;;;;;;;19.07;10.77;;;5.10;99.90;;;;;;4699252;30;20272;-82
2021/12/04 09:34:44;;;;;;;22.97;11.00;;;5.10;99.90;;;;;;4689531;30;20050;-82
2021/12/04 10:13:19;;;;;;;21.83;10.00;;;5.20;99.90;;;;;;4710336;30;20060;-82
2021/12/04 10:21:18;;;;;;;26.13;11.40;;;5.20;99.90;;;;;;4697996;30;20084;-81
2021/12/04 10:34:35;;;;;;;24.67;11.00;;;5.40;99.90;;;;;;4697210;30;20060;-81
2021/12/04 10:37:07;;;;;;;22.97;12.03;;;5.40;99.90;;;;;;4699511;30;20049;-81
2021/12/04 10:39:34;;;;;;;24.90;11.30;;;5.40;99.90;;;;;;4695817;30;20056;-82
2021/12/04 10:42:03;;;;;;;25.20;12.07;;;5.40;99.90;;;;;;4714669;30;20478;-81
2021/12/04 10:44:29;;;;;;;26.77;13.27;;;5.40;99.90;;;;;;4690346;30;20045;-81
2021/12/04 10:47:15;;;;;;;29.07;12.57;;;5.40;99.90;;;;;;4692676;30;20054;-81
2021/12/04 10:55:24;;;;;;;29.63;13.93;;;5.40;99.90;;;;;;4708548;30;20084;-81
2021/12/04 10:58:22;;;;;;;34.50;14.60;;;5.40;99.90;;;;;;4695163;30;20049;-81
2021/12/04 11:04:10;;;;;;;29.23;14.83;;;5.40;99.90;;;;;;4676361;30;20053;-81
2021/12/04 11:06:57;;;;;;;31.93;14.30;;;5.30;99.90;;;;;;4690949;30;20125;-81
2021/12/04 11:35:22;;;;;;;26.13;12.40;;;5.50;99.90;;;;;;4703922;30;20410;-81
2021/12/04 11:43:15;;;;;;;30.90;14.40;;;5.50;99.90;;;;;;4709381;30;20052;-82
2021/12/04 11:46:41;;;;;;;28.47;14.53;;;5.50;99.90;;;;;;4697228;30;20398;-81
2021/12/04 11:48:38;;;;;;;36.40;16.07;;;5.50;99.90;;;;;;4692315;30;20053;-81
2021/12/04 11:51:15;;;;;;;34.63;15.97;;;5.50;99.90;;;;;;4717800;30;20045;-83
2021/12/04 11:53:42;;;;;;;38.13;16.50;;;5.50;99.90;;;;;;4709811;30;20465;-81
2021/12/04 11:56:14;;;;;;;35.47;17.60;;;5.50;99.90;;;;;;4689891;30;20130;-83
2021/12/04 11:58:46;;;;;;;32.60;17.67;;;5.50;99.90;;;;;;4685941;30;20048;-81
2021/12/04 12:01:34;;;;;;;38.83;18.00;;;5.40;99.90;;;;;;4697969;30;20520;-81
2021/12/04 12:04:08;;;;;;;38.13;17.13;;;5.40;99.90;;;;;;4686225;30;20053;-81
2021/12/04 12:06:39;;;;;;;41.70;19.10;;;5.50;99.90;;;;;;4703621;30;20530;-82
2021/12/04 12:09:15;;;;;;;41.50;19.30;;;5.50;99.90;;;;;;4711497;30;20627;-81
2021/12/04 12:11:56;;;;;;;39.07;19.67;;;5.50;99.90;;;;;;4708338;30;20060;-81
2021/12/04 12:14:48;;;;;;;44.20;20.67;;;5.50;99.90;;;;;;4711815;30;20049;-82
2021/12/04 12:17:16;;;;;;;41.90;20.00;;;5.50;99.90;;;;;;4689991;30;20056;-81
2021/12/04 12:19:50;;;;;;;42.77;20.07;;;5.50;99.90;;;;;;4687558;30;20116;-82
2021/12/04 12:22:38;;;;;;;44.93;19.70;;;5.50;99.90;;;;;;4709759;30;20061;-81
2021/12/04 12:25:17;;;;;;;50.17;21.80;;;5.50;99.90;;;;;;4695660;30;20107;-81
2021/12/04 12:31:41;;;;;;;52.57;22.40;;;5.50;99.90;;;;;;4710691;30;20049;-82
2021/12/04 12:33:55;;;;;;;50.03;23.37;;;5.50;99.90;;;;;;4699532;30;20054;-81
2021/12/04 12:36:22;;;;;;;50.92;22.08;;;5.50;99.90;;;;;;4699700;30;20053;-82
2021/12/04 12:38:56;;;;;;;53.00;23.83;;;5.50;99.90;;;;;;4711606;30;20099;-81
2021/12/04 12:41:40;;;;;;;53.53;23.37;;;5.50;99.90;;;;;;4708223;30;20045;-81
2021/12/04 12:44:19;;;;;;;56.20;24.00;;;5.50;99.90;;;;;;4706112;30;20049;-81
2021/12/04 12:46:57;;;;;;;53.63;24.30;;;5.50;99.90;;;;;;4702323;30;20527;-81
2021/12/04 12:49:36;;;;;;;67.33;25.70;;;5.50;99.90;;;;;;4697745;30;20057;-81
2021/12/04 12:52:18;;;;;;;62.60;25.57;;;5.40;99.90;;;;;;4711294;30;20152;-82
2021/12/04 12:55:03;;;;;;;70.55;27.52;;;5.40;99.90;;;;;;4710806;30;20060;-82
2021/12/04 12:57:34;;;;;;;66.27;26.47;;;5.40;99.90;;;;;;4689495;30;20068;-81
2021/12/04 13:11:43;;;;;;;62.63;23.10;;;5.40;99.90;;;;;;4710400;30;20048;-81
2021/12/04 13:14:19;;;;;;;53.53;21.93;;;5.40;99.90;;;;;;4675037;30;20417;-81
2021/12/04 13:16:51;;;;;;;49.83;22.27;;;5.50;99.90;;;;;;4702392;30;20050;-81
2021/12/04 13:19:21;;;;;;;50.47;20.33;;;5.50;99.90;;;;;;4706503;30;20414;-81
2021/12/04 13:21:52;;;;;;;49.80;20.87;;;5.50;99.90;;;;;;4689666;30;20066;-81
2021/12/04 13:24:21;;;;;;;51.83;21.27;;;5.50;99.90;;;;;;4689312;30;20460;-81
2021/12/04 13:26:50;;;;;;;47.30;19.97;;;5.60;99.90;;;;;;4696426;30;20434;-81
2021/12/04 13:29:20;;;;;;;47.00;19.63;;;5.60;99.90;;;;;;4675799;30;20450;-82
2021/12/04 13:31:47;;;;;;;49.50;20.27;;;5.60;99.90;;;;;;4715160;30;20046;-81
2021/12/04 13:34:21;;;;;;;44.20;17.70;;;5.60;99.90;;;;;;4700108;30;20057;-81
2021/12/04 13:36:47;;;;;;;39.67;17.97;;;5.60;99.90;;;;;;4696765;30;20058;-81
2021/12/04 13:39:15;;;;;;;42.90;17.90;;;5.60;99.90;;;;;;4676675;30;20060;-81
2021/12/04 13:41:42;;;;;;;44.60;17.50;;;5.60;99.90;;;;;;4685542;30;20050;-81
2021/12/04 13:44:11;;;;;;;43.97;17.67;;;5.60;99.90;;;;;;4685976;30;20076;-81
2021/12/04 13:46:47;;;;;;;44.43;18.50;;;5.60;99.90;;;;;;4686319;30;20053;-81
2021/12/04 13:49:17;;;;;;;43.33;18.47;;;5.60;99.90;;;;;;4711464;30;20055;-81
2021/12/04 13:51:50;;;;;;;44.27;18.83;;;5.60;99.90;;;;;;4698880;30;20056;-81
2021/12/04 13:54:16;;;;;;;48.20;20.70;;;5.60;99.90;;;;;;4703074;30;20052;-81
2021/12/04 13:56:43;;;;;;;45.93;20.03;;;5.60;99.90;;;;;;4702749;30;20057;-82
2021/12/04 13:59:10;;;;;;;45.67;17.93;;;5.60;99.90;;;;;;4717621;30;20052;-81
2021/12/04 14:01:42;;;;;;;50.73;20.57;;;5.60;99.90;;;;;;4717043;30;20052;-81
2021/12/04 14:04:16;;;;;;;48.78;21.13;;;5.60;99.90;;;;;;4697978;30;20058;-81
2021/12/04 14:06:56;;;;;;;49.43;21.30;;;5.60;99.90;;;;;;4714300;30;20053;-81
2021/12/04 14:09:30;;;;;;;49.97;22.07;;;5.60;99.90;;;;;;4714099;30;20109;-81
2021/12/04 14:11:56;;;;;;;54.30;22.90;;;5.60;99.90;;;;;;4698963;30;20111;-81
2021/12/04 14:14:26;;;;;;;53.33;21.77;;;5.60;99.90;;;;;;4700007;30;20069;-81
2021/12/04 14:16:55;;;;;;;43.53;20.43;;;5.60;99.90;;;;;;4696477;30;20108;-81
2021/12/04 14:19:26;;;;;;;49.10;21.93;;;5.60;99.90;;;;;;4702882;30;20556;-80
2021/12/04 14:22:01;;;;;;;50.17;20.98;;;5.60;99.90;;;;;;4702127;30;20407;-81
2021/12/04 14:24:49;;;;;;;47.57;19.83;;;5.60;99.90;;;;;;4713632;30;20084;-81
2021/12/04 14:27:22;;;;;;;53.07;22.60;;;5.60;99.90;;;;;;4696717;30;20054;-81
2021/12/04 14:29:55;;;;;;;51.13;21.77;;;5.60;99.90;;;;;;4699370;30;20575;-80
2021/12/04 14:32:26;;;;;;;51.27;22.07;;;5.60;99.90;;;;;;4685221;30;20093;-81
2021/12/04 14:34:58;;;;;;;54.08;22.25;;;5.60;99.90;;;;;;4685255;30;20054;-81
2021/12/04 14:37:24;;;;;;;49.45;21.65;;;5.60;99.90;;;;;;4699195;30;20085;-81
2021/12/04 14:39:50;;;;;;;58.87;24.33;;;5.60;99.90;;;;;;4701693;30;20503;-80
2021/12/04 14:42:23;;;;;;;58.77;23.30;;;5.60;99.90;;;;;;4716480;30;20132;-80
2021/12/04 14:44:56;;;;;;;59.97;23.07;;;5.60;99.90;;;;;;4702786;30;20394;-80
2021/12/04 14:47:23;;;;;;;55.60;22.17;;;5.50;99.90;;;;;;4699308;30;20050;-81
2021/12/04 14:49:51;;;;;;;63.00;25.83;;;5.60;99.90;;;;;;4713754;30;20054;-81
2021/12/04 14:52:23;;;;;;;56.80;24.03;;;5.50;99.90;;;;;;4707847;30;20045;-81
2021/12/04 14:54:50;;;;;;;63.13;23.25;;;5.50;99.90;;;;;;4673303;30;20099;-81
2021/12/04 14:57:21;;;;;;;60.40;25.93;;;5.50;99.90;;;;;;4711378;30;20526;-80
2021/12/04 14:59:57;;;;;;;60.57;23.57;;;5.50;99.90;;;;;;4711844;30;20053;-80
2021/12/04 15:02:23;;;;;;;60.30;23.80;;;5.50;99.90;;;;;;4697361;30;20050;-80
2021/12/04 15:04:49;;;;;;;63.03;25.07;;;5.40;99.90;;;;;;4696778;30;20052;-80
2021/12/04 15:07:31;;;;;;;51.87;23.20;;;5.50;99.90;;;;;;4692586;30;20404;-80
2021/12/04 15:09:57;;;;;;;58.92;24.17;;;5.50;99.90;;;;;;4680047;30;20205;-80
2021/12/04 15:12:33;;;;;;;57.27;24.57;;;5.50;99.90;;;;;;4683255;30;20128;-81
2021/12/04 15:15:09;;;;;;;61.73;25.17;;;5.50;99.90;;;;;;4681103;30;20038;-81
2021/12/04 15:17:36;;;;;;;57.60;24.50;;;5.50;99.90;;;;;;4698062;30;20081;-81
2021/12/04 15:20:15;;;;;;;55.60;24.07;;;5.50;99.90;;;;;;4694202;30;20119;-80
2021/12/04 15:22:46;;;;;;;56.77;22.70;;;5.50;99.90;;;;;;4705452;30;20121;-81
2021/12/04 15:25:15;;;;;;;62.53;23.77;;;5.50;99.90;;;;;;4678134;30;20053;-80
2021/12/04 15:27:42;;;;;;;59.60;23.40;;;5.50;99.90;;;;;;4702886;30;20084;-81
2021/12/04 15:30:14;;;;;;;57.40;23.43;;;5.50;99.90;;;;;;4701704;30;20403;-81
2021/12/04 15:32:42;;;;;;;;;;;5.50;99.90;;;;;;4690244;30;20506;-81
2021/12/04 15:35:16;;;;;;;64.13;24.53;;;5.50;99.90;;;;;;4690071;30;19930;-81
2021/12/04 15:37:52;;;;;;;51.40;22.80;;;5.50;99.90;;;;;;4695300;30;20057;-82
2021/12/04 15:40:35;;;;;;;61.60;26.00;;;5.50;99.90;;;;;;4704393;30;20111;-81
2021/12/04 15:45:46;;;;;;;62.70;24.73;;;5.50;99.90;;;;;;4689990;30;20058;-81
2021/12/04 15:53:13;;;;;;;69.77;28.37;;;5.50;99.90;;;;;;4702002;30;20050;-81
2021/12/04 15:55:56;;;;;;;65.57;27.10;;;5.40;99.90;;;;;;4705292;30;20071;-81
2021/12/04 15:58:32;;;;;;;66.20;25.57;;;5.50;99.90;;;;;;4701429;30;20069;-81
2021/12/04 16:01:08;;;;;;;65.87;26.27;;;5.50;99.90;;;;;;4690310;30;20050;-81